To NAV CANADA Home Page Login to a new session Search on AWWS site Disclaimer Vers la page française équivalente Tips FAQ What's new on the site To the Forecasts and Observations / NOTAM section To "File a Flight Plan" website Publications and other links Update of the User's profile FIC Telephone Numbers My Weather Data Folder Route Weather Data Regional Weather Data Local Weather Data To the Forecasts and Observations / NOTAM section
Request Generated 04/13/2021 at 10:18:34 UTC . Weather information available at that time is displayed.

METAR/TAF

BAKER LAKE/NU    

METAR CYBK 130900Z 23004KT 15SM IC FEW024 M27/M31 A3080 RMK SC1 SC TR SLP435=
METAR CYBK 130800Z 33004KT 15SM IC FEW024 M26/M29 A3080 RMK SC1 SLP434=
METAR CYBK 130700Z 30002KT 15SM IC FEW024 M26/M29 A3079 RMK SC1 AURBO SLP431=

TAF CYBK 130538Z 1306/1318 29005KT P6SM FEW020
BECMG 1313/1315 16008KT
RMK NXT FCST BY 131200Z=
Your time UTC time
Weather data provided by Environment Canada and NAV CANADA